createdAt,value
2018-03-16T00:01:43.388Z,94496.45
2018-03-16T00:04:09.725Z,94491.97
2018-03-16T00:06:36.114Z,94492.70
2018-03-16T00:09:02.511Z,94491.72
2018-03-16T00:11:28.857Z,94495.35
2018-03-16T00:13:55.202Z,94482.35
2018-03-16T00:16:21.621Z,94483.89
2018-03-16T00:18:47.994Z,94479.62
2018-03-16T00:21:14.423Z,94476.53
2018-03-16T00:23:40.755Z,94488.20
2018-03-16T00:26:07.104Z,94479.86
2018-03-16T00:28:33.437Z,94474.36
2018-03-16T00:30:59.780Z,94470.72
2018-03-16T00:33:26.121Z,94457.09
2018-03-16T00:35:52.475Z,94466.91
2018-03-16T00:38:18.819Z,94460.72
2018-03-16T00:40:45.195Z,94457.69
2018-03-16T00:43:11.573Z,94453.42
2018-03-16T00:45:37.903Z,94452.40
2018-03-16T00:48:04.254Z,94457.90
2018-03-16T00:50:30.612Z,94451.48
2018-03-16T00:52:56.996Z,94453.88
2018-03-16T00:55:23.339Z,94452.71
2018-03-16T00:57:49.698Z,94465.19
2018-03-16T01:00:16.144Z,94471.42
2018-03-16T01:02:42.497Z,94460.73
2018-03-16T01:05:08.844Z,94468.28
2018-03-16T01:07:35.228Z,94448.28
2018-03-16T01:10:01.580Z,94447.88
2018-03-16T01:12:27.911Z,94467.81
2018-03-16T01:14:54.303Z,94463.17
2018-03-16T01:17:20.642Z,94460.82
2018-03-16T01:19:46.995Z,94463.73
2018-03-16T01:22:13.327Z,94466.38
2018-03-16T01:24:39.658Z,94461.64
2018-03-16T01:27:05.995Z,94463.89
2018-03-16T01:29:32.375Z,94473.52
2018-03-16T01:31:58.770Z,94470.67
2018-03-16T01:34:25.125Z,94469.82
2018-03-16T01:36:51.514Z,94472.18
2018-03-16T01:39:17.851Z,94467.86
2018-03-16T01:41:44.191Z,94458.97
2018-03-16T01:44:10.549Z,94464.98
2018-03-16T01:46:36.953Z,94471.14
2018-03-16T01:49:03.293Z,94477.78
2018-03-16T01:51:29.645Z,94480.60
2018-03-16T01:53:55.978Z,94479.98
2018-03-16T01:56:22.383Z,94467.48
2018-03-16T01:58:48.746Z,94468.27
2018-03-16T02:01:15.090Z,94471.55
2018-03-16T02:03:41.425Z,94467.41
2018-03-16T02:06:07.767Z,94471.47
2018-03-16T02:08:34.138Z,94470.41
2018-03-16T02:11:00.474Z,94468.52
2018-03-16T02:13:26.840Z,94465.52
2018-03-16T02:15:53.169Z,94461.91
2018-03-16T02:18:19.516Z,94463.66
2018-03-16T02:20:45.901Z,94461.53
2018-03-16T02:23:12.231Z,94458.63
2018-03-16T02:25:38.566Z,94462.16
2018-03-16T02:28:04.940Z,94460.16
2018-03-16T02:30:31.306Z,94461.75
2018-03-16T02:32:57.670Z,94444.69
2018-03-16T02:35:24.004Z,94449.36
2018-03-16T02:37:50.343Z,94451.50
2018-03-16T02:40:16.692Z,94449.23
2018-03-16T02:42:43.027Z,94450.92
2018-03-16T02:45:09.360Z,94443.02
2018-03-16T02:47:35.713Z,94430.97
2018-03-16T02:50:02.086Z,94441.14
2018-03-16T02:52:28.474Z,94453.57
2018-03-16T02:54:54.837Z,94448.55
2018-03-16T02:57:21.188Z,94446.52
2018-03-16T02:59:47.534Z,94441.52
2018-03-16T03:02:13.882Z,94447.47
2018-03-16T03:04:40.233Z,94459.50
2018-03-16T03:07:06.630Z,94460.21
2018-03-16T03:09:32.963Z,94460.95
2018-03-16T03:11:59.322Z,94468.66
2018-03-16T03:14:25.706Z,94466.34
2018-03-16T03:16:52.145Z,94462.84
2018-03-16T03:19:18.506Z,94456.98
2018-03-16T03:21:44.841Z,94453.89
2018-03-16T03:24:11.214Z,94448.09
2018-03-16T03:26:37.545Z,94450.12
2018-03-16T03:29:03.902Z,94447.88
2018-03-16T03:31:30.281Z,94454.00
2018-03-16T03:33:56.678Z,94458.32
2018-03-16T03:36:23.065Z,94458.63
2018-03-16T03:38:49.401Z,94449.17
2018-03-16T03:41:15.751Z,94437.92
2018-03-16T03:43:42.090Z,94445.55
2018-03-16T03:46:08.425Z,94454.84
2018-03-16T03:48:34.756Z,94449.34
2018-03-16T03:51:01.110Z,94448.37
2018-03-16T03:53:27.451Z,94454.06
2018-03-16T03:55:53.798Z,94455.17
2018-03-16T03:58:20.129Z,94451.81
2018-03-16T04:00:46.538Z,94450.83
2018-03-16T04:03:12.870Z,94456.38
2018-03-16T04:05:39.213Z,94461.66
2018-03-16T04:08:05.606Z,94466.05
2018-03-16T04:10:31.942Z,94459.69
2018-03-16T04:12:58.261Z,94470.37
2018-03-16T04:15:24.594Z,94476.41
2018-03-16T04:17:50.932Z,94467.95
2018-03-16T04:20:17.261Z,94473.99
2018-03-16T04:22:43.631Z,94482.47
2018-03-16T04:25:10.003Z,94474.45
2018-03-16T04:30:08.687Z,94468.64
2018-03-16T04:32:35.018Z,94467.16
2018-03-16T04:35:01.379Z,94463.86
2018-03-16T04:37:27.693Z,94471.79
2018-03-16T04:39:54.012Z,94469.56
2018-03-16T04:42:20.387Z,94460.69
2018-03-16T04:44:46.746Z,94448.64
2018-03-16T04:47:13.086Z,94451.38
2018-03-16T04:49:39.420Z,94455.48
2018-03-16T04:52:05.745Z,94459.25
2018-03-16T04:54:32.070Z,94451.58
2018-03-16T04:56:58.434Z,94459.56
2018-03-16T04:59:24.801Z,94462.59
2018-03-16T05:01:51.348Z,94460.80
2018-03-16T05:04:17.679Z,94449.84
2018-03-16T05:06:44.096Z,94453.08
2018-03-16T05:09:10.449Z,94445.61
2018-03-16T05:11:36.770Z,94445.56
2018-03-16T05:14:03.107Z,94436.44
2018-03-16T05:16:29.469Z,94441.69
2018-03-16T05:18:55.801Z,94448.14
2018-03-16T05:21:22.171Z,94452.30
2018-03-16T05:23:48.544Z,94454.97
2018-03-16T05:26:14.953Z,94455.45
2018-03-16T05:28:41.295Z,94455.00
2018-03-16T05:31:07.634Z,94444.80
2018-03-16T05:33:33.969Z,94430.70
2018-03-16T05:36:00.331Z,94432.75
2018-03-16T05:38:26.669Z,94426.45
2018-03-16T05:40:53.059Z,94434.35
2018-03-16T05:43:19.397Z,94446.99
2018-03-16T05:45:45.739Z,94446.88
2018-03-16T05:48:12.167Z,94442.14
2018-03-16T05:50:38.494Z,94435.97
2018-03-16T05:53:04.884Z,94429.06
2018-03-16T05:55:31.273Z,94440.12
2018-03-16T05:57:57.593Z,94440.18
2018-03-16T06:00:23.985Z,94438.51
2018-03-16T06:02:50.379Z,94431.92
2018-03-16T06:05:16.704Z,94428.56
2018-03-16T06:07:43.153Z,94432.83
2018-03-16T06:10:09.539Z,94437.78
2018-03-16T06:12:35.906Z,94446.41
2018-03-16T06:15:02.231Z,94443.70
2018-03-16T06:17:28.637Z,94449.88
2018-03-16T06:19:55.013Z,94433.40
2018-03-16T06:22:21.528Z,94436.16
2018-03-16T06:24:47.876Z,94438.83
2018-03-16T06:27:14.269Z,94440.44
2018-03-16T06:29:40.642Z,94430.34
2018-03-16T06:32:07.162Z,94451.48
2018-03-16T06:34:33.586Z,94465.03
2018-03-16T06:36:59.973Z,94455.42
2018-03-16T06:39:26.366Z,94453.31
2018-03-16T06:41:52.802Z,94452.87
2018-03-16T06:44:19.357Z,94454.17
2018-03-16T06:46:45.698Z,94458.45
2018-03-16T06:49:12.033Z,94455.72
2018-03-16T06:51:38.531Z,94460.28
2018-03-16T06:54:04.925Z,94469.89
2018-03-16T06:56:31.332Z,94461.22
2018-03-16T06:58:57.705Z,94449.47
2018-03-16T07:01:24.080Z,94438.02
2018-03-16T07:03:50.576Z,94442.92
2018-03-16T07:06:16.989Z,94447.05
2018-03-16T07:08:43.365Z,94437.31
2018-03-16T07:11:09.773Z,94443.55
2018-03-16T07:13:36.209Z,94433.79
2018-03-16T07:16:02.692Z,94431.06
2018-03-16T07:18:29.065Z,94435.13
2018-03-16T07:23:33.841Z,94450.43
2018-03-16T07:26:00.238Z,94460.76
2018-03-16T07:28:26.894Z,94464.27
2018-03-16T07:30:53.587Z,94458.58
2018-03-16T07:33:19.938Z,94452.44
2018-03-16T07:35:46.302Z,94450.59
2018-03-16T07:38:12.835Z,94461.83
2018-03-16T07:40:39.411Z,94449.69
2018-03-16T07:43:06.103Z,94451.94
2018-03-16T07:45:39.994Z,94414.73
2018-03-16T07:48:06.751Z,94459.30
2018-03-16T07:50:33.402Z,94413.08
2018-03-16T07:53:00.096Z,94400.78
2018-03-16T07:55:26.585Z,94432.78
2018-03-16T07:57:52.979Z,94464.32
2018-03-16T08:00:19.463Z,94422.61
2018-03-16T08:02:45.903Z,94446.45
2018-03-16T08:05:12.383Z,94425.47
2018-03-16T08:07:38.843Z,94451.20
2018-03-16T08:10:06.028Z,94412.98
2018-03-16T08:12:33.378Z,94455.66
2018-03-16T08:15:00.488Z,94456.69
2018-03-16T08:17:27.015Z,94411.02
2018-03-16T08:24:56.663Z,94455.52
2018-03-16T08:27:23.266Z,94403.91
2018-03-16T08:29:49.926Z,94436.46
2018-03-16T08:32:16.434Z,94456.34
2018-03-16T08:34:42.878Z,94457.06
2018-03-16T08:37:09.259Z,94451.39
2018-03-16T08:39:35.656Z,94444.69
2018-03-16T08:42:02.105Z,94432.53
2018-03-16T08:44:28.489Z,94437.34
2018-03-16T08:46:54.971Z,94426.61
2018-03-16T08:49:21.403Z,94430.48
2018-03-16T08:51:47.823Z,94408.75
2018-03-16T08:54:14.612Z,94419.83
2018-03-16T08:56:41.019Z,94435.13
2018-03-16T08:59:07.433Z,94431.44
2018-03-16T09:01:33.815Z,94433.87
2018-03-16T09:04:00.291Z,94446.53
2018-03-16T09:06:26.698Z,94440.00
2018-03-16T09:08:53.057Z,94439.83
2018-03-16T09:11:19.434Z,94427.95
2018-03-16T09:13:46.611Z,94442.69
2018-03-16T09:16:12.998Z,94425.51
2018-03-16T09:18:39.386Z,94423.36
2018-03-16T09:21:05.883Z,94423.34
2018-03-16T09:23:32.319Z,94419.06
2018-03-16T09:25:58.727Z,94425.50
2018-03-16T09:28:25.110Z,94409.50
2018-03-16T09:30:51.677Z,94393.71
2018-03-16T09:33:18.211Z,94418.55
2018-03-16T09:35:44.617Z,94405.49
2018-03-16T09:38:11.005Z,94411.94
2018-03-16T09:40:37.385Z,94405.08
2018-03-16T09:43:03.819Z,94416.48
2018-03-16T09:45:30.188Z,94395.28
2018-03-16T09:47:56.545Z,94414.71
2018-03-16T09:50:22.986Z,94394.50
2018-03-16T09:52:49.370Z,94404.33
2018-03-16T09:55:15.718Z,94391.05
2018-03-16T09:57:42.244Z,94386.52
2018-03-16T10:00:08.681Z,94385.06
2018-03-16T10:02:35.110Z,94376.73
2018-03-16T10:05:01.522Z,94370.59
2018-03-16T10:07:27.894Z,94380.73
2018-03-16T10:09:54.379Z,94377.20
2018-03-16T10:12:20.974Z,94372.03
2018-03-16T10:14:47.301Z,94361.50
2018-03-16T10:17:13.778Z,94392.91
2018-03-16T10:19:40.219Z,94371.73
2018-03-16T10:22:08.573Z,94373.94
2018-03-16T10:24:34.990Z,94368.41
2018-03-16T10:27:01.393Z,94365.00
2018-03-16T10:29:27.786Z,94364.84
2018-03-16T10:31:54.168Z,94367.56
2018-03-16T10:34:20.866Z,94344.50
2018-03-16T10:36:47.336Z,94355.02
2018-03-16T10:39:13.757Z,94333.72
2018-03-16T10:41:40.262Z,94346.09
2018-03-16T10:44:06.696Z,94313.75
2018-03-16T10:46:33.100Z,94326.27
2018-03-16T10:48:59.551Z,94322.27
2018-03-16T10:51:25.891Z,94316.64
2018-03-16T10:53:52.420Z,94300.67
2018-03-16T10:56:18.846Z,94318.78
2018-03-16T10:58:45.943Z,94307.99
2018-03-16T11:01:13.104Z,94266.39
2018-03-16T11:03:39.553Z,94280.38
2018-03-16T11:06:06.267Z,94267.27
2018-03-16T11:08:33.570Z,94292.89
2018-03-16T11:11:00.047Z,94276.83
2018-03-16T11:13:26.546Z,94285.04
2018-03-16T11:15:53.123Z,94262.05
2018-03-16T11:18:19.601Z,94263.30
2018-03-16T11:20:46.086Z,94266.33
2018-03-16T11:23:12.627Z,94271.75
2018-03-16T11:25:39.021Z,94257.94
2018-03-16T11:28:05.413Z,94261.95
2018-03-16T11:30:31.877Z,94255.67
2018-03-16T11:32:58.427Z,94254.11
2018-03-16T11:35:25.220Z,94243.19
2018-03-16T11:37:51.690Z,94228.36
2018-03-16T11:40:18.795Z,94217.62
2018-03-16T11:42:45.329Z,94233.39
2018-03-16T11:45:13.777Z,94241.20
2018-03-16T11:47:40.273Z,94215.45
2018-03-16T11:50:06.786Z,94214.33
2018-03-16T11:52:33.350Z,94207.36
2018-03-16T11:55:00.053Z,94221.38
2018-03-16T11:57:28.011Z,94200.48
2018-03-16T11:59:54.952Z,94184.02
2018-03-16T12:02:21.638Z,94195.47
2018-03-16T12:04:48.386Z,94212.75
2018-03-16T12:07:15.050Z,94183.72
2018-03-16T12:09:41.643Z,94183.33
2018-03-16T12:12:09.221Z,94158.57
2018-03-16T12:14:35.842Z,94195.38
2018-03-16T12:17:03.177Z,94177.20
2018-03-16T12:19:29.814Z,94179.72
2018-03-16T12:21:56.403Z,94183.05
2018-03-16T12:24:28.940Z,94171.01
2018-03-16T12:26:56.579Z,94150.25
2018-03-16T12:29:23.247Z,94162.31
2018-03-16T12:31:50.448Z,94147.13
2018-03-16T12:34:17.109Z,94140.66
2018-03-16T12:36:43.604Z,94149.80
2018-03-16T12:39:10.421Z,94133.17
2018-03-16T12:41:38.844Z,94111.22
2018-03-16T12:44:08.390Z,94144.67
2018-03-16T12:46:34.908Z,94137.19
2018-03-16T12:49:01.378Z,94129.77
2018-03-16T12:51:27.888Z,94115.25
2018-03-16T12:53:55.703Z,94109.33
2018-03-16T12:56:22.501Z,94113.61
2018-03-16T12:58:49.432Z,94100.31
2018-03-16T13:01:16.643Z,94102.86
2018-03-16T13:03:43.175Z,94110.14
2018-03-16T13:06:10.342Z,94112.92
2018-03-16T13:08:37.032Z,94100.19
2018-03-16T13:11:03.892Z,94093.20
2018-03-16T13:13:30.956Z,94099.55
2018-03-16T13:15:57.455Z,94096.70
2018-03-16T13:18:24.028Z,94101.52
2018-03-16T13:20:50.570Z,94123.55
2018-03-16T13:23:17.073Z,94089.59
2018-03-16T13:25:43.670Z,94104.11
2018-03-16T13:28:10.092Z,94104.52
2018-03-16T13:30:36.480Z,94102.63
2018-03-16T13:33:02.914Z,94099.35
2018-03-16T13:35:29.347Z,94088.53
2018-03-16T13:37:55.793Z,94094.80
2018-03-16T13:40:22.955Z,94085.04
2018-03-16T13:42:49.433Z,94073.23
2018-03-16T13:45:15.820Z,94060.38
2018-03-16T13:47:42.766Z,94070.39
2018-03-16T13:50:09.475Z,94056.37
2018-03-16T13:52:35.917Z,94076.23
2018-03-16T13:55:02.670Z,94077.07
2018-03-16T13:57:29.192Z,94082.79
2018-03-16T13:59:55.734Z,94075.05
2018-03-16T14:02:22.398Z,94074.47
2018-03-16T14:04:49.249Z,94073.31
2018-03-16T14:07:16.387Z,94069.60
2018-03-16T14:09:42.995Z,94055.27
2018-03-16T14:12:09.408Z,94058.55
2018-03-16T14:14:35.881Z,94067.31
2018-03-16T14:17:04.309Z,94042.97
2018-03-16T14:19:30.714Z,94062.14
2018-03-16T14:21:57.110Z,94040.02
2018-03-16T14:24:23.555Z,94059.00
2018-03-16T14:26:49.896Z,94060.21
2018-03-16T14:29:16.252Z,94042.81
2018-03-16T14:31:42.633Z,94057.90
2018-03-16T14:34:09.022Z,94046.20
2018-03-16T14:36:35.388Z,94041.97
2018-03-16T14:39:01.810Z,94052.97
2018-03-16T14:44:26.804Z,94051.84
2018-03-16T14:46:53.277Z,94050.18
2018-03-16T14:49:19.814Z,94061.59
2018-03-16T14:51:46.985Z,94053.45
2018-03-16T14:54:13.387Z,94077.16
2018-03-16T14:56:39.742Z,94055.14
2018-03-16T14:59:06.174Z,94061.12
2018-03-16T15:01:33.308Z,94054.19
2018-03-16T15:03:59.724Z,94032.91
2018-03-16T15:06:26.148Z,94041.48
2018-03-16T15:08:52.508Z,94050.44
2018-03-16T15:11:18.930Z,94040.36
2018-03-16T15:13:45.342Z,94039.81
2018-03-16T15:16:11.719Z,94040.22
2018-03-16T15:18:38.086Z,94047.55
2018-03-16T15:21:04.545Z,94054.50
2018-03-16T15:23:30.902Z,94030.38
2018-03-16T15:25:57.315Z,94038.52
2018-03-16T15:28:23.694Z,94048.30
2018-03-16T15:30:55.340Z,94018.29
2018-03-16T15:33:21.716Z,94051.44
2018-03-16T15:35:48.137Z,94037.67
2018-03-16T15:38:14.601Z,94036.85
2018-03-16T15:40:40.982Z,94024.93
2018-03-16T15:43:07.330Z,94041.30
2018-03-16T15:45:33.744Z,94033.25
2018-03-16T15:48:00.424Z,94036.55
2018-03-16T15:50:26.826Z,94023.94
2018-03-16T15:52:53.194Z,94045.28
2018-03-16T15:55:19.538Z,94034.02
2018-03-16T15:57:45.908Z,94029.72
2018-03-16T16:00:12.263Z,94032.70
2018-03-16T16:02:38.661Z,94026.04
2018-03-16T16:05:05.177Z,94014.88
2018-03-16T16:07:31.519Z,94017.81
2018-03-16T16:09:57.903Z,94028.14
2018-03-16T16:12:24.254Z,94015.00
2018-03-16T16:14:50.627Z,94013.77
2018-03-16T16:17:16.995Z,94031.03
2018-03-16T16:19:43.336Z,94031.78
2018-03-16T16:22:09.690Z,94038.38
2018-03-16T16:24:36.060Z,94025.76
2018-03-16T16:27:02.394Z,94010.23
2018-03-16T16:29:28.763Z,94008.20
2018-03-16T16:31:55.100Z,94014.30
2018-03-16T16:34:21.511Z,94030.58
2018-03-16T16:36:47.858Z,94022.83
2018-03-16T16:39:14.197Z,94023.55
2018-03-16T16:41:40.541Z,94004.41
2018-03-16T16:44:06.925Z,93997.42
2018-03-16T16:46:33.249Z,94024.36
2018-03-16T16:48:59.585Z,94030.87
2018-03-16T16:51:26.857Z,94015.58
2018-03-16T16:53:53.294Z,94028.44
2018-03-16T16:56:19.788Z,94041.26
2018-03-16T16:58:46.114Z,94035.30
2018-03-16T17:01:12.489Z,94037.27
2018-03-16T17:03:38.844Z,94024.89
2018-03-16T17:06:05.190Z,94025.33
2018-03-16T17:08:31.591Z,94012.92
2018-03-16T17:10:57.946Z,94023.30
2018-03-16T17:13:24.297Z,94023.05
2018-03-16T17:15:50.739Z,94012.17
2018-03-16T17:18:17.110Z,94030.24
2018-03-16T17:20:43.492Z,94023.80
2018-03-16T17:23:09.831Z,94027.38
2018-03-16T17:25:36.231Z,94041.73
2018-03-16T17:28:02.572Z,94003.23
2018-03-16T17:30:28.957Z,94042.75
2018-03-16T17:32:55.369Z,94034.59
2018-03-16T17:35:21.815Z,94033.45
2018-03-16T17:37:48.181Z,94047.14
2018-03-16T17:40:14.589Z,94037.19
2018-03-16T17:42:40.977Z,94047.91
2018-03-16T17:45:07.341Z,94047.03
2018-03-16T17:47:33.673Z,94052.95
2018-03-16T17:50:00.057Z,94059.05
2018-03-16T17:52:26.378Z,94053.18
2018-03-16T17:54:52.710Z,94042.92
2018-03-16T17:57:19.082Z,94052.73
2018-03-16T17:59:45.414Z,94060.27
2018-03-16T18:02:11.781Z,94053.24
2018-03-16T18:04:38.126Z,94066.25
2018-03-16T18:07:04.459Z,94070.17
2018-03-16T18:09:30.808Z,94076.61
2018-03-16T18:11:57.164Z,94079.70
2018-03-16T18:14:23.572Z,94084.34
2018-03-16T18:16:49.960Z,94093.77
2018-03-16T18:19:16.364Z,94091.08
2018-03-16T18:21:42.706Z,94077.13
2018-03-16T18:24:09.034Z,94043.53
2018-03-16T18:26:35.375Z,94066.54
2018-03-16T18:29:01.737Z,94069.36
2018-03-16T18:31:28.114Z,94070.81
2018-03-16T18:33:54.453Z,94074.93
2018-03-16T18:36:20.798Z,94063.69
2018-03-16T18:38:47.226Z,94082.88
2018-03-16T18:41:13.570Z,94064.54
2018-03-16T18:43:39.922Z,94078.54
2018-03-16T18:46:06.254Z,94086.29
2018-03-16T18:48:32.639Z,94092.08
2018-03-16T18:50:59.009Z,94103.20
2018-03-16T18:53:25.378Z,94099.11
2018-03-16T18:55:51.717Z,94097.30
2018-03-16T18:58:18.104Z,94092.16
2018-03-16T19:00:44.441Z,94096.23
2018-03-16T19:03:10.841Z,94100.20
2018-03-16T19:05:37.188Z,94101.98
2018-03-16T19:08:03.559Z,94101.72
2018-03-16T19:10:29.891Z,94092.28
2018-03-16T19:12:56.274Z,94083.02
2018-03-16T19:15:22.634Z,94098.34
2018-03-16T19:17:49.069Z,94088.11
2018-03-16T19:20:15.488Z,94059.17
2018-03-16T19:22:41.873Z,94086.06
2018-03-16T19:25:08.272Z,94071.45
2018-03-16T19:27:34.623Z,94079.16
2018-03-16T19:30:00.996Z,94073.48
2018-03-16T19:32:27.333Z,94074.51
2018-03-16T19:34:53.711Z,94093.27
2018-03-16T19:37:20.124Z,94109.19
2018-03-16T19:39:46.456Z,94112.59
2018-03-16T19:42:12.834Z,94059.02
2018-03-16T19:44:39.168Z,94133.63
2018-03-16T19:47:05.509Z,94047.92
2018-03-16T19:49:32.013Z,94125.29
2018-03-16T19:51:58.403Z,94080.48
2018-03-16T19:54:24.762Z,94121.14
2018-03-16T19:56:51.264Z,94107.15
2018-03-16T19:59:17.611Z,94112.02
2018-03-16T20:01:44.082Z,94120.73
2018-03-16T20:04:10.438Z,94079.39
2018-03-16T20:06:36.811Z,94129.48
2018-03-16T20:09:03.202Z,94125.61
2018-03-16T20:11:29.541Z,94092.92
2018-03-16T20:13:55.917Z,94123.20
2018-03-16T20:16:22.254Z,94129.16
2018-03-16T20:18:48.734Z,94134.84
2018-03-16T20:21:15.492Z,94109.30
2018-03-16T20:23:41.865Z,94143.09
2018-03-16T20:26:08.206Z,94120.77
2018-03-16T20:28:34.622Z,94128.48
2018-03-16T20:31:00.985Z,94129.32
2018-03-16T20:33:27.319Z,94130.72
2018-03-16T20:35:53.737Z,94130.52
2018-03-16T20:38:20.267Z,94145.45
2018-03-16T20:40:46.682Z,94115.48
2018-03-16T20:43:13.121Z,94134.98
2018-03-16T20:45:39.520Z,94096.23
2018-03-16T20:48:05.972Z,94103.73
2018-03-16T20:50:32.352Z,94113.70
2018-03-16T20:52:58.775Z,94100.97
2018-03-16T20:55:25.249Z,94117.75
2018-03-16T20:57:51.681Z,94128.86
2018-03-16T21:00:18.060Z,94070.77
2018-03-16T21:02:44.394Z,94049.30
2018-03-16T21:05:10.780Z,94120.28
2018-03-16T21:07:37.126Z,94103.06
2018-03-16T21:10:03.494Z,94059.13
2018-03-16T21:12:29.895Z,94119.19
2018-03-16T21:14:56.227Z,94110.36
2018-03-16T21:17:22.609Z,94093.37
2018-03-16T21:19:48.985Z,94108.01
2018-03-16T21:22:15.368Z,94081.42
2018-03-16T21:24:41.711Z,94075.45
2018-03-16T21:27:08.710Z,94086.88
2018-03-16T21:29:35.060Z,94123.45
2018-03-16T21:32:01.698Z,94100.03
2018-03-16T21:34:28.055Z,94090.06
2018-03-16T21:36:54.600Z,94128.94
2018-03-16T21:39:21.069Z,94068.09
2018-03-16T21:41:47.457Z,94121.81
2018-03-16T21:44:13.952Z,94101.11
2018-03-16T21:46:40.362Z,94095.42
2018-03-16T21:49:06.763Z,94083.64
2018-03-16T21:51:33.163Z,94080.52
2018-03-16T21:53:59.558Z,94073.89
2018-03-16T21:56:25.954Z,94095.03
2018-03-16T21:58:52.321Z,94094.34
2018-03-16T22:01:18.693Z,94089.48
2018-03-16T22:03:45.139Z,94069.98
2018-03-16T22:06:11.533Z,94095.91
2018-03-16T22:08:37.933Z,94099.42
2018-03-16T22:11:04.366Z,94113.22
2018-03-16T22:13:30.802Z,94060.84
2018-03-16T22:15:57.177Z,94060.18
2018-03-16T22:18:23.565Z,94106.80
2018-03-16T22:20:49.977Z,94081.16
2018-03-16T22:23:16.391Z,94076.00
2018-03-16T22:25:42.778Z,94104.48
2018-03-16T22:28:09.207Z,94092.91
2018-03-16T22:30:35.630Z,94076.02
2018-03-16T22:33:02.069Z,94107.02
2018-03-16T22:35:28.504Z,94068.75
2018-03-16T22:37:54.910Z,94078.50
2018-03-16T22:40:21.344Z,94080.88
2018-03-16T22:42:47.742Z,94084.79
2018-03-16T22:45:14.163Z,94103.02
2018-03-16T22:47:40.595Z,94102.37
2018-03-16T22:50:06.977Z,94110.03
2018-03-16T22:52:33.373Z,94056.97
2018-03-16T22:54:59.832Z,94086.30
2018-03-16T22:57:26.209Z,94097.33
2018-03-16T22:59:52.597Z,94067.80
2018-03-16T23:02:19.081Z,94079.66
2018-03-16T23:04:45.494Z,94103.19
2018-03-16T23:07:11.911Z,94096.08
2018-03-16T23:09:38.300Z,94080.11
2018-03-16T23:12:04.721Z,94106.78
2018-03-16T23:14:31.152Z,94068.61
2018-03-16T23:16:57.576Z,94086.83
2018-03-16T23:19:23.918Z,94101.37
2018-03-16T23:21:50.316Z,94096.03
2018-03-16T23:24:16.647Z,94061.91
2018-03-16T23:26:43.030Z,94080.38
2018-03-16T23:29:09.362Z,94058.52
2018-03-16T23:31:35.711Z,94066.20
2018-03-16T23:34:02.060Z,94073.95
2018-03-16T23:36:28.433Z,94061.19
2018-03-16T23:38:54.952Z,94054.22
2018-03-16T23:41:21.608Z,94077.53
2018-03-16T23:43:47.990Z,94070.73
2018-03-16T23:46:14.325Z,94064.89
2018-03-16T23:48:40.718Z,94032.21
2018-03-16T23:51:07.133Z,94076.45
2018-03-16T23:53:33.482Z,94023.92
2018-03-16T23:55:59.850Z,94042.52
2018-03-16T23:58:26.190Z,94065.30
